createdAt,value
2023-02-04T00:00:00.854Z,2.60
2023-02-04T00:02:27.622Z,2.55
2023-02-04T00:04:54.509Z,2.60
2023-02-04T00:07:21.246Z,2.70
2023-02-04T00:09:49.764Z,2.35
2023-02-04T00:12:17.069Z,2.53
2023-02-04T00:14:44.572Z,2.42
2023-02-04T00:17:12.983Z,2.70
2023-02-04T00:19:40.705Z,2.33
2023-02-04T00:22:08.417Z,3.08
2023-02-04T00:24:38.652Z,2.08
2023-02-04T00:27:07.485Z,2.60
2023-02-04T00:29:34.394Z,3.03
2023-02-04T00:32:01.167Z,2.85
2023-02-04T00:34:27.933Z,2.10
2023-02-04T00:36:54.724Z,3.38
2023-02-04T00:39:21.451Z,2.70
2023-02-04T00:41:48.292Z,3.08
2023-02-04T00:44:15.088Z,2.38
2023-02-04T00:46:42.863Z,2.13
2023-02-04T00:49:12.849Z,2.78
2023-02-04T00:51:40.530Z,2.70
2023-02-04T00:54:07.661Z,2.22
2023-02-04T00:56:35.061Z,2.40
2023-02-04T00:59:01.926Z,1.92
2023-02-04T01:01:28.911Z,2.42
2023-02-04T01:03:55.795Z,2.78
2023-02-04T01:06:22.444Z,2.50
2023-02-04T01:08:49.133Z,2.63
2023-02-04T01:11:15.929Z,2.70
2023-02-04T01:13:42.971Z,2.83
2023-02-04T01:16:09.731Z,2.95
2023-02-04T01:18:36.400Z,2.70
2023-02-04T01:21:03.115Z,2.65
2023-02-04T01:23:29.796Z,2.85
2023-02-04T01:25:56.955Z,2.63
2023-02-04T01:28:23.587Z,2.90
2023-02-04T01:30:50.295Z,2.60
2023-02-04T01:33:17.389Z,2.65
2023-02-04T01:35:44.086Z,2.67
2023-02-04T01:38:10.738Z,2.17
2023-02-04T01:40:37.539Z,2.38
2023-02-04T01:43:04.646Z,3.38
2023-02-04T01:45:34.274Z,3.22
2023-02-04T01:48:05.162Z,2.88
2023-02-04T01:50:32.842Z,3.25
2023-02-04T01:53:00.316Z,3.10
2023-02-04T01:55:30.142Z,2.97
2023-02-04T01:57:58.811Z,3.15
2023-02-04T02:00:32.063Z,3.33
2023-02-04T02:02:59.936Z,2.78
2023-02-04T02:05:38.342Z,2.83
2023-02-04T02:08:06.246Z,3.08
2023-02-04T02:10:34.193Z,3.22
2023-02-04T02:13:01.686Z,3.17
2023-02-04T02:15:28.470Z,3.15
2023-02-04T02:17:55.793Z,2.90
2023-02-04T02:20:25.473Z,2.65
2023-02-04T02:23:29.462Z,2.97
2023-02-04T02:25:56.147Z,3.28
2023-02-04T02:28:24.411Z,2.80
2023-02-04T02:30:51.817Z,2.75
2023-02-04T02:33:21.221Z,3.15
2023-02-04T02:35:48.864Z,2.17
2023-02-04T02:38:19.922Z,2.90
2023-02-04T02:40:47.925Z,3.30
2023-02-04T02:43:17.289Z,2.80
2023-02-04T02:45:44.791Z,3.05
2023-02-04T02:48:12.310Z,3.10
2023-02-04T02:50:39.727Z,2.70
2023-02-04T02:53:15.336Z,3.78
2023-02-04T02:55:42.993Z,3.10
2023-02-04T02:58:15.758Z,3.15
2023-02-04T03:00:42.386Z,2.88
2023-02-04T03:03:14.010Z,2.97
2023-02-04T03:08:14.079Z,2.73
2023-02-04T03:10:41.660Z,2.97
2023-02-04T03:13:08.947Z,2.83
2023-02-04T03:15:35.872Z,3.25
2023-02-04T03:18:03.176Z,2.60
2023-02-04T03:20:32.096Z,2.40
2023-02-04T03:22:59.368Z,2.40
2023-02-04T03:25:29.373Z,3.08
2023-02-04T03:27:58.665Z,2.88
2023-02-04T03:30:26.713Z,2.50
2023-02-04T03:32:54.165Z,2.50
2023-02-04T03:35:21.395Z,3.15
2023-02-04T03:37:48.170Z,2.60
2023-02-04T03:40:15.364Z,2.55
2023-02-04T03:42:42.120Z,2.95
2023-02-04T03:45:09.169Z,3.70
2023-02-04T03:47:35.806Z,2.70
2023-02-04T03:50:02.462Z,3.05
2023-02-04T03:52:29.139Z,2.50
2023-02-04T03:54:55.795Z,2.75
2023-02-04T03:57:22.459Z,3.10
2023-02-04T03:59:49.151Z,3.78
2023-02-04T04:02:15.867Z,3.60
2023-02-04T04:04:42.480Z,3.17
2023-02-04T04:07:09.129Z,2.95
2023-02-04T04:09:35.772Z,3.17
2023-02-04T04:12:03.913Z,2.97
2023-02-04T04:14:30.607Z,2.63
2023-02-04T04:16:57.264Z,3.25
2023-02-04T04:19:24.921Z,2.58
2023-02-04T04:21:51.739Z,3.03
2023-02-04T04:24:18.599Z,2.85
2023-02-04T04:26:45.310Z,2.90
2023-02-04T04:29:12.779Z,3.08
2023-02-04T04:31:39.549Z,2.85
2023-02-04T04:34:06.287Z,3.38
2023-02-04T04:36:32.989Z,3.47
2023-02-04T04:38:59.812Z,3.25
2023-02-04T04:41:26.537Z,3.13
2023-02-04T04:43:53.243Z,2.65
2023-02-04T04:46:19.992Z,2.90
2023-02-04T04:48:46.681Z,3.03
2023-02-04T04:51:13.383Z,3.60
2023-02-04T04:53:40.086Z,2.83
2023-02-04T04:56:06.868Z,2.95
2023-02-04T04:58:33.524Z,3.17
2023-02-04T05:01:00.264Z,2.88
2023-02-04T05:03:27.158Z,2.47
2023-02-04T05:05:53.842Z,2.30
2023-02-04T05:08:20.953Z,2.67
2023-02-04T05:10:47.591Z,2.97
2023-02-04T05:13:14.620Z,2.85
2023-02-04T05:15:42.360Z,2.58
2023-02-04T05:18:09.197Z,2.78
2023-02-04T05:20:35.881Z,3.10
2023-02-04T05:23:05.369Z,2.63
2023-02-04T05:25:32.567Z,2.50
2023-02-04T05:27:59.335Z,2.75
2023-02-04T05:30:26.129Z,2.53
2023-02-04T05:32:52.751Z,2.65
2023-02-04T05:35:19.605Z,2.55
2023-02-04T05:37:46.333Z,2.50
2023-02-04T05:40:13.917Z,3.33
2023-02-04T05:42:41.861Z,2.63
2023-02-04T05:45:15.208Z,2.67
2023-02-04T05:47:41.936Z,3.13
2023-02-04T05:50:09.125Z,2.70
2023-02-04T05:52:35.841Z,3.25
2023-02-04T05:55:02.667Z,3.13
2023-02-04T05:57:29.257Z,2.85
2023-02-04T05:59:55.860Z,2.67
2023-02-04T06:02:22.526Z,2.50
2023-02-04T06:04:49.221Z,2.80
2023-02-04T06:07:16.061Z,2.80
2023-02-04T06:09:42.690Z,3.13
2023-02-04T06:12:10.569Z,2.88
2023-02-04T06:14:37.311Z,3.03
2023-02-04T06:17:04.219Z,2.78
2023-02-04T06:19:30.872Z,2.72
2023-02-04T06:21:57.549Z,2.75
2023-02-04T06:24:24.153Z,2.58
2023-02-04T06:26:50.796Z,2.83
2023-02-04T06:29:17.614Z,2.78
2023-02-04T06:31:44.628Z,2.60
2023-02-04T06:34:11.498Z,2.45
2023-02-04T06:36:38.167Z,3.28
2023-02-04T06:39:04.871Z,2.55
2023-02-04T06:41:31.611Z,2.15
2023-02-04T06:43:58.432Z,2.85
2023-02-04T06:46:25.077Z,2.60
2023-02-04T06:48:51.770Z,2.75
2023-02-04T06:51:18.445Z,3.13
2023-02-04T06:53:46.056Z,2.30
2023-02-04T06:56:12.827Z,2.50
2023-02-04T06:58:39.566Z,2.60
2023-02-04T07:01:06.465Z,2.65
2023-02-04T07:03:33.285Z,2.13
2023-02-04T07:05:59.897Z,2.97
2023-02-04T07:08:26.636Z,2.35
2023-02-04T07:10:53.278Z,2.83
2023-02-04T07:13:19.874Z,2.85
2023-02-04T07:15:46.659Z,2.70
2023-02-04T07:18:13.367Z,2.65
2023-02-04T07:20:39.955Z,2.38
2023-02-04T07:23:06.657Z,2.42
2023-02-04T07:25:33.291Z,2.60
2023-02-04T07:28:01.821Z,2.05
2023-02-04T07:30:28.637Z,2.70
2023-02-04T07:32:55.352Z,2.33
2023-02-04T07:35:21.990Z,1.85
2023-02-04T07:37:48.735Z,2.17
2023-02-04T07:40:15.651Z,2.80
2023-02-04T07:42:42.446Z,2.85
2023-02-04T07:45:09.626Z,2.70
2023-02-04T07:47:36.274Z,2.25
2023-02-04T07:50:03.014Z,2.55
2023-02-04T07:52:29.675Z,5.20
2023-02-04T07:54:56.505Z,4.13
2023-02-04T07:57:23.284Z,3.38
2023-02-04T07:59:49.932Z,3.17
2023-02-04T08:02:16.565Z,3.65
2023-02-04T08:04:43.294Z,3.60
2023-02-04T08:07:10.044Z,3.45
2023-02-04T08:09:36.706Z,3.33
2023-02-04T08:12:03.478Z,3.75
2023-02-04T08:14:30.075Z,3.83
2023-02-04T08:16:56.719Z,4.07
2023-02-04T08:19:23.466Z,2.80
2023-02-04T08:21:50.134Z,2.60
2023-02-04T08:24:16.922Z,3.60
2023-02-04T08:26:44.541Z,3.03
2023-02-04T08:29:11.207Z,2.90
2023-02-04T08:31:38.601Z,2.28
2023-02-04T08:34:06.076Z,2.38
2023-02-04T08:36:33.426Z,3.05
2023-02-04T08:39:00.108Z,2.63
2023-02-04T08:41:26.863Z,3.00
2023-02-04T08:43:53.586Z,2.75
2023-02-04T08:46:20.554Z,2.63
2023-02-04T08:48:47.242Z,2.88
2023-02-04T08:51:14.036Z,2.47
2023-02-04T08:53:40.766Z,2.55
2023-02-04T08:56:08.930Z,3.15
2023-02-04T08:58:39.577Z,3.17
2023-02-04T09:01:07.235Z,2.08
2023-02-04T09:03:33.991Z,2.30
2023-02-04T09:06:00.682Z,2.55
2023-02-04T09:08:27.611Z,2.53
2023-02-04T09:10:54.322Z,2.60
2023-02-04T09:13:20.956Z,2.70
2023-02-04T09:15:47.653Z,2.28
2023-02-04T09:18:19.113Z,2.60
2023-02-04T09:20:46.246Z,3.00
2023-02-04T09:23:13.432Z,2.50
2023-02-04T09:25:41.190Z,2.45
2023-02-04T09:28:12.486Z,2.78
2023-02-04T09:30:40.497Z,3.28
2023-02-04T09:33:07.517Z,2.80
2023-02-04T09:35:34.323Z,3.10
2023-02-04T09:38:02.084Z,2.63
2023-02-04T09:40:31.978Z,2.53
2023-02-04T09:42:59.429Z,2.35
2023-02-04T09:45:28.751Z,2.53
2023-02-04T09:47:58.199Z,2.88
2023-02-04T09:50:27.683Z,2.67
2023-02-04T09:52:57.132Z,2.53
2023-02-04T09:55:29.722Z,3.40
2023-02-04T09:57:56.483Z,2.67
2023-02-04T10:00:25.922Z,3.28
2023-02-04T10:02:52.622Z,2.92
2023-02-04T10:05:30.730Z,3.15
2023-02-04T10:07:58.722Z,2.70
2023-02-04T10:10:27.420Z,2.72
2023-02-04T10:13:01.063Z,3.70
2023-02-04T10:15:28.217Z,3.38
2023-02-04T10:18:01.575Z,2.88
2023-02-04T10:20:28.216Z,2.40
2023-02-04T10:22:56.170Z,3.00
2023-02-04T10:25:25.064Z,2.85
2023-02-04T10:27:55.311Z,3.38
2023-02-04T10:30:28.071Z,2.38
2023-02-04T10:32:54.887Z,2.55
2023-02-04T10:35:22.272Z,2.90
2023-02-04T10:38:02.219Z,2.42
2023-02-04T10:40:34.621Z,2.80
2023-02-04T10:43:14.029Z,2.67
2023-02-04T10:45:47.078Z,2.70
2023-02-04T10:48:18.766Z,2.63
2023-02-04T10:50:47.763Z,3.47
2023-02-04T10:53:36.830Z,2.40
2023-02-04T10:56:05.563Z,3.35
2023-02-04T10:58:32.741Z,2.67
2023-02-04T11:00:59.413Z,2.65
2023-02-04T11:03:28.310Z,3.13
2023-02-04T11:05:58.246Z,3.00
2023-02-04T11:08:24.871Z,2.70
2023-02-04T11:11:19.570Z,2.83
2023-02-04T11:14:00.843Z,2.90
2023-02-04T11:16:33.024Z,2.90
2023-02-04T11:19:02.950Z,2.45
2023-02-04T11:21:32.763Z,3.28
2023-02-04T11:24:11.289Z,3.30
2023-02-04T11:26:40.230Z,3.05
2023-02-04T11:29:06.846Z,2.72
2023-02-04T11:31:42.800Z,2.83
2023-02-04T11:34:18.581Z,2.70
2023-02-04T11:36:59.577Z,3.35
2023-02-04T11:39:32.499Z,3.00
2023-02-04T11:42:00.687Z,3.42
2023-02-04T11:44:27.925Z,2.67
2023-02-04T11:46:56.037Z,2.70
2023-02-04T11:49:25.015Z,2.90
2023-02-04T11:52:02.585Z,2.40
2023-02-04T11:54:29.266Z,2.70
2023-02-04T11:57:00.091Z,2.60
2023-02-04T11:59:27.433Z,2.83
2023-02-04T12:02:05.674Z,2.90
2023-02-04T12:04:32.288Z,2.55
2023-02-04T12:07:03.518Z,2.67
2023-02-04T12:09:32.019Z,2.72
2023-02-04T12:12:04.196Z,3.05
2023-02-04T12:14:39.393Z,2.80
2023-02-04T12:17:26.353Z,2.78
2023-02-04T12:19:53.035Z,3.35
2023-02-04T12:22:19.796Z,3.00
2023-02-04T12:24:46.575Z,2.80
2023-02-04T12:27:13.169Z,2.90
2023-02-04T12:29:39.830Z,3.00
2023-02-04T12:32:06.531Z,2.65
2023-02-04T12:34:33.464Z,2.42
2023-02-04T12:37:00.213Z,2.55
2023-02-04T12:39:28.490Z,2.28
2023-02-04T12:41:55.198Z,2.22
2023-02-04T12:44:21.840Z,2.33
2023-02-04T12:46:48.531Z,2.58
2023-02-04T12:49:15.334Z,2.20
2023-02-04T12:51:42.002Z,2.17
2023-02-04T12:54:08.650Z,2.75
2023-02-04T12:56:35.310Z,1.92
2023-02-04T12:59:01.960Z,2.25
2023-02-04T13:01:28.640Z,2.25
2023-02-04T13:03:55.330Z,2.70
2023-02-04T13:06:21.948Z,2.53
2023-02-04T13:08:48.593Z,2.67
2023-02-04T13:11:15.234Z,2.05
2023-02-04T13:13:41.838Z,2.72
2023-02-04T13:16:08.539Z,2.28
2023-02-04T13:18:35.321Z,2.70
2023-02-04T13:21:01.900Z,2.63
2023-02-04T13:23:28.568Z,2.42
2023-02-04T13:25:55.243Z,2.38
2023-02-04T13:28:21.919Z,2.13
2023-02-04T13:30:48.714Z,1.85
2023-02-04T13:33:16.718Z,2.55
2023-02-04T13:35:45.093Z,2.10
2023-02-04T13:38:11.751Z,2.20
2023-02-04T13:40:39.274Z,2.00
2023-02-04T13:43:05.921Z,1.83
2023-02-04T13:45:32.928Z,2.10
2023-02-04T13:47:59.747Z,2.47
2023-02-04T13:50:26.612Z,2.10
2023-02-04T13:52:53.257Z,2.20
2023-02-04T13:55:19.890Z,2.10
2023-02-04T13:57:46.561Z,2.45
2023-02-04T14:00:13.922Z,2.47
2023-02-04T14:02:40.908Z,2.17
2023-02-04T14:05:07.593Z,2.50
2023-02-04T14:07:34.567Z,1.65
2023-02-04T14:10:01.181Z,2.22
2023-02-04T14:12:27.993Z,2.25
2023-02-04T14:14:54.722Z,1.75
2023-02-04T14:17:21.364Z,2.00
2023-02-04T14:19:47.991Z,2.10
2023-02-04T14:22:14.753Z,2.47
2023-02-04T14:24:42.717Z,1.70
2023-02-04T14:27:10.546Z,1.88
2023-02-04T14:29:37.272Z,1.90
2023-02-04T14:32:04.057Z,1.70
2023-02-04T14:34:30.655Z,2.08
2023-02-04T14:36:57.353Z,2.00
2023-02-04T14:39:24.007Z,1.90
2023-02-04T14:41:50.692Z,2.05
2023-02-04T14:44:20.951Z,1.80
2023-02-04T14:46:51.424Z,1.90
2023-02-04T14:49:18.084Z,2.13
2023-02-04T14:51:44.694Z,1.70
2023-02-04T14:54:11.549Z,1.95
2023-02-04T14:56:38.438Z,1.90
2023-02-04T14:59:05.248Z,2.10
2023-02-04T15:01:32.338Z,1.77
2023-02-04T15:03:59.111Z,1.88
2023-02-04T15:06:25.964Z,1.58
2023-02-04T15:08:53.006Z,1.77
2023-02-04T15:11:19.664Z,1.88
2023-02-04T15:13:46.562Z,2.03
2023-02-04T15:16:14.807Z,2.10
2023-02-04T15:18:42.611Z,1.73
2023-02-04T15:21:09.534Z,1.63
2023-02-04T15:23:36.279Z,1.67
2023-02-04T15:26:03.382Z,2.13
2023-02-04T15:28:30.978Z,2.05
2023-02-04T15:30:58.270Z,2.05
2023-02-04T15:33:25.072Z,2.15
2023-02-04T15:35:51.770Z,2.13
2023-02-04T15:38:18.363Z,1.77
2023-02-04T15:40:45.068Z,1.83
2023-02-04T15:43:11.745Z,2.22
2023-02-04T15:45:41.433Z,2.30
2023-02-04T15:48:08.413Z,1.60
2023-02-04T15:50:35.155Z,1.88
2023-02-04T15:53:01.940Z,1.98
2023-02-04T15:55:29.095Z,2.10
2023-02-04T15:57:55.849Z,1.70
2023-02-04T16:00:22.892Z,1.83
2023-02-04T16:02:49.913Z,2.15
2023-02-04T16:05:16.895Z,1.85
2023-02-04T16:07:43.586Z,1.73
2023-02-04T16:10:10.977Z,1.90
2023-02-04T16:12:37.619Z,1.40
2023-02-04T16:15:04.552Z,1.65
2023-02-04T16:17:31.174Z,1.70
2023-02-04T16:19:58.089Z,1.80
2023-02-04T16:22:24.884Z,2.03
2023-02-04T16:24:52.880Z,1.55
2023-02-04T16:27:20.810Z,1.65
2023-02-04T16:29:47.480Z,1.95
2023-02-04T16:32:14.516Z,1.70
2023-02-04T16:34:41.720Z,1.75
2023-02-04T16:37:08.385Z,1.80
2023-02-04T16:39:36.847Z,1.88
2023-02-04T16:42:04.811Z,1.48
2023-02-04T16:44:31.504Z,1.70
2023-02-04T16:46:58.173Z,1.88
2023-02-04T16:49:24.921Z,1.70
2023-02-04T16:51:51.621Z,1.60
2023-02-04T16:54:18.430Z,1.50
2023-02-04T16:56:45.088Z,1.83
2023-02-04T16:59:11.716Z,1.63
2023-02-04T17:01:38.556Z,1.98
2023-02-04T17:04:05.309Z,1.83
2023-02-04T17:06:34.066Z,1.70
2023-02-04T17:09:00.754Z,1.50
2023-02-04T17:11:31.395Z,1.95
2023-02-04T17:14:01.923Z,1.67
2023-02-04T17:16:29.557Z,2.10
2023-02-04T17:18:56.770Z,1.85
2023-02-04T17:21:25.947Z,1.60
2023-02-04T17:23:53.139Z,1.58
2023-02-04T17:26:20.161Z,1.77
2023-02-04T17:28:46.932Z,1.65
2023-02-04T17:31:13.739Z,1.70
2023-02-04T17:33:40.627Z,1.80
2023-02-04T17:36:07.916Z,1.60
2023-02-04T17:38:35.239Z,1.75
2023-02-04T17:41:02.623Z,1.95
2023-02-04T17:43:29.427Z,1.85
2023-02-04T17:45:56.204Z,1.80
2023-02-04T17:48:22.841Z,1.60
2023-02-04T17:50:49.560Z,2.15
2023-02-04T17:53:16.242Z,1.80
2023-02-04T17:55:42.899Z,1.80
2023-02-04T17:58:20.801Z,1.77
2023-02-04T18:00:48.308Z,1.80
2023-02-04T18:03:18.496Z,1.80
2023-02-04T18:05:47.994Z,1.67
2023-02-04T18:08:34.039Z,1.35
2023-02-04T18:11:00.841Z,1.58
2023-02-04T18:13:34.283Z,1.70
2023-02-04T18:16:10.125Z,1.85
2023-02-04T18:18:39.028Z,1.73
2023-02-04T18:21:27.276Z,2.28
2023-02-04T18:24:13.430Z,1.70
2023-02-04T18:26:45.726Z,1.98
2023-02-04T18:29:34.475Z,2.08
2023-02-04T18:32:15.777Z,2.22
2023-02-04T18:34:51.128Z,1.70
2023-02-04T18:37:35.543Z,2.05
2023-02-04T18:40:27.081Z,2.20
2023-02-04T18:43:23.005Z,1.85
2023-02-04T18:45:50.032Z,2.28
2023-02-04T18:48:19.437Z,2.17
2023-02-04T18:50:54.439Z,2.20
2023-02-04T18:53:26.392Z,2.00
2023-02-04T18:56:02.134Z,1.73
2023-02-04T18:58:40.543Z,2.05
2023-02-04T19:01:10.131Z,2.20
2023-02-04T19:03:45.024Z,1.70
2023-02-04T19:06:29.402Z,2.00
2023-02-04T19:09:23.427Z,2.03
2023-02-04T19:11:53.050Z,1.80
2023-02-04T19:14:40.556Z,2.30
2023-02-04T19:17:22.200Z,1.85
2023-02-04T19:22:36.568Z,2.20
2023-02-04T19:25:32.648Z,1.90
2023-02-04T19:28:18.340Z,2.20
2023-02-04T19:30:49.588Z,2.38
2023-02-04T19:33:42.438Z,1.98
2023-02-04T19:36:33.772Z,1.85
2023-02-04T19:39:35.429Z,1.90
2023-02-04T19:42:18.872Z,2.08
2023-02-04T19:44:46.461Z,2.10
2023-02-04T19:47:19.203Z,1.73
2023-02-04T19:49:45.865Z,2.10
2023-02-04T19:52:31.138Z,2.17
2023-02-04T19:55:32.021Z,2.05
2023-02-04T19:58:00.515Z,2.17
2023-02-04T20:00:36.658Z,2.38
2023-02-04T20:03:27.755Z,2.38
2023-02-04T20:06:01.864Z,2.03
2023-02-04T20:08:49.976Z,2.35
2023-02-04T20:11:34.913Z,2.30
2023-02-04T20:14:23.789Z,1.98
2023-02-04T20:17:00.376Z,2.85
2023-02-04T20:19:28.734Z,2.08
2023-02-04T20:22:01.398Z,2.40
2023-02-04T20:24:35.222Z,2.53
2023-02-04T20:27:31.454Z,2.22
2023-02-04T20:30:17.398Z,2.15
2023-02-04T20:32:53.972Z,2.13
2023-02-04T20:35:20.611Z,2.22
2023-02-04T20:37:55.884Z,2.50
2023-02-04T20:40:31.634Z,2.38
2023-02-04T20:43:15.824Z,1.90
2023-02-04T20:45:52.161Z,2.08
2023-02-04T20:48:19.920Z,2.03
2023-02-04T20:50:53.030Z,2.45
2023-02-04T20:53:36.332Z,2.70
2023-02-04T20:56:18.659Z,2.25
2023-02-04T20:58:46.210Z,2.40
2023-02-04T21:01:20.839Z,2.55
2023-02-04T21:03:49.326Z,2.65
2023-02-04T21:06:31.578Z,2.63
2023-02-04T21:08:59.558Z,2.60
2023-02-04T21:11:26.653Z,2.10
2023-02-04T21:13:54.447Z,2.33
2023-02-04T21:16:21.780Z,2.58
2023-02-04T21:18:48.455Z,2.90
2023-02-04T21:21:15.518Z,2.65
2023-02-04T21:23:42.275Z,2.83
2023-02-04T21:26:09.023Z,2.85
2023-02-04T21:28:35.908Z,2.33
2023-02-04T21:31:03.108Z,3.05
2023-02-04T21:33:29.973Z,2.42
2023-02-04T21:35:56.839Z,2.60
2023-02-04T21:38:23.530Z,2.70
2023-02-04T21:40:50.192Z,2.80
2023-02-04T21:43:16.963Z,2.72
2023-02-04T21:45:43.683Z,2.78
2023-02-04T21:48:10.400Z,2.45
2023-02-04T21:50:38.486Z,2.30
2023-02-04T21:53:06.272Z,2.47
2023-02-04T21:55:33.220Z,2.42
2023-02-04T21:58:00.379Z,2.80
2023-02-04T22:00:27.542Z,2.83
2023-02-04T22:02:54.660Z,2.97
2023-02-04T22:05:22.193Z,2.55
2023-02-04T22:07:49.398Z,3.00
2023-02-04T22:10:19.467Z,2.67
2023-02-04T22:12:46.141Z,2.85
2023-02-04T22:15:16.676Z,2.70
2023-02-04T22:17:44.420Z,2.75
2023-02-04T22:20:14.914Z,2.45
2023-02-04T22:22:46.396Z,2.40
2023-02-04T22:25:15.563Z,2.50
2023-02-04T22:27:42.544Z,3.35
2023-02-04T22:30:12.126Z,2.63
2023-02-04T22:32:39.334Z,2.90
2023-02-04T22:35:07.619Z,2.50
2023-02-04T22:37:34.336Z,2.95
2023-02-04T22:40:00.975Z,2.53
2023-02-04T22:42:27.754Z,2.75
2023-02-04T22:44:54.450Z,2.90
2023-02-04T22:47:21.098Z,2.92
2023-02-04T22:49:47.759Z,2.95
2023-02-04T22:52:15.018Z,3.10
2023-02-04T22:54:43.261Z,3.15
2023-02-04T22:57:10.140Z,3.05
2023-02-04T22:59:36.952Z,3.80
2023-02-04T23:02:03.708Z,2.72
2023-02-04T23:04:30.550Z,2.97
2023-02-04T23:06:57.228Z,3.45
2023-02-04T23:09:23.959Z,2.97
2023-02-04T23:11:50.663Z,2.72
2023-02-04T23:14:17.311Z,2.95
2023-02-04T23:16:44.039Z,3.45
2023-02-04T23:19:10.736Z,3.10
2023-02-04T23:21:37.465Z,3.15
2023-02-04T23:24:04.393Z,3.30
2023-02-04T23:26:31.103Z,2.90
2023-02-04T23:28:58.192Z,2.78
2023-02-04T23:31:25.085Z,3.03
2023-02-04T23:33:51.691Z,3.42
2023-02-04T23:36:18.310Z,3.40
2023-02-04T23:38:44.959Z,2.80
2023-02-04T23:41:11.690Z,2.95
2023-02-04T23:43:38.358Z,3.28
2023-02-04T23:46:05.249Z,3.33
2023-02-04T23:48:31.863Z,3.00
2023-02-04T23:50:58.492Z,2.83
2023-02-04T23:53:25.224Z,3.00
2023-02-04T23:55:51.936Z,2.95
2023-02-04T23:58:19.275Z,3.53
